< < Back
Terminal Aerodrome Forecast


Current Version              Previous Versions:   1  2  3  4  5  6  7  8  9  

Terminal Aerodrome Forecast

419
FTUS42 KILM 301400 CCA
TAFILM
TAF COR
KILM 301426Z 3012/3112 04004KT P6SM VCSH SCT018
      TEMPO 3012/3016 BKN018
     FM301600 15008KT P6SM SCT025
     FM310900 VRB03KT 6SM BR BKN012=



Latest METAR

436
SAUS70 KWBC 310200 RRE
MTRILM
METAR KILM 310153Z 00000KT 10SM CLR 25/22 A3017 RMK AO2 SLP217
T02500217


USA.gov is the U.S. government's official web portal to all federal, state and local government web resources and services.